Time;durP1;ratioP1;P1;durP2;ratioP2;P2;SDS_P1;SDS_P2;PMS_P1;PMS_P2;Temp;Humidity;BMP_temperature;BMP_pressure;BME280_temperature;BME280_humidity;BME280_pressure;Samples;Min_cycle;Max_cycle;Signal;HPM_P1;HPM_P2
2024/01/06 00:01:03;;;;;;;;;;;6.70;89.00;;;;;;4994292;28;92202;-50
2024/01/06 00:03:29;;;;;;;;;;;6.70;88.80;;;;;;4995848;28;92638;-48
2024/01/06 00:05:54;;;;;;;;;;;6.70;89.00;;;;;;4994810;28;92582;-48
2024/01/06 00:08:20;;;;;;;;;;;6.70;89.00;;;;;;4996226;28;92089;-47
2024/01/06 00:10:46;;;;;;;;;;;6.70;89.10;;;;;;4995908;28;91785;-48
2024/01/06 00:13:11;;;;;;;;;;;6.70;89.10;;;;;;4994955;28;92749;-48
2024/01/06 00:15:37;;;;;;;;;;;6.70;89.10;;;;;;4996383;28;91902;-49
2024/01/06 00:18:03;;;;;;;;;;;6.70;89.10;;;;;;4994480;28;94666;-48
2024/01/06 00:20:28;;;;;;;;;;;6.70;89.10;;;;;;4997424;28;92582;-48
2024/01/06 00:22:56;;;;;;;;;;;6.70;89.10;;;;;;4996119;28;92947;-47
2024/01/06 00:25:21;;;;;;;;;;;6.70;89.10;;;;;;5000495;28;93787;-48
2024/01/06 00:27:47;;;;;;;;;;;6.70;89.10;;;;;;5000201;28;92020;-48
2024/01/06 00:30:13;;;;;;;;;;;6.70;89.00;;;;;;4994974;28;91935;-48
2024/01/06 00:32:38;;;;;;;;;;;6.70;89.10;;;;;;4998117;28;94052;-49
2024/01/06 00:35:04;;;;;;;;;;;6.70;89.10;;;;;;4998568;28;91308;-48
2024/01/06 00:37:30;;;;;;;;;;;6.70;89.00;;;;;;4998185;28;92173;-48
2024/01/06 00:39:55;;;;;;;;;;;6.70;89.10;;;;;;4995211;28;92517;-47
2024/01/06 00:42:21;;;;;;;;;;;6.70;89.00;;;;;;5004932;28;93057;-48
2024/01/06 00:44:46;;;;;;;;;;;6.70;89.00;;;;;;4997864;28;92388;-47
2024/01/06 00:47:12;;;;;;;;;;;6.70;88.90;;;;;;4994082;28;92026;-49
2024/01/06 00:49:38;;;;;;;;;;;6.70;89.00;;;;;;5001156;28;93386;-48
2024/01/06 00:52:03;;;;;;;;;;;6.70;88.80;;;;;;4993922;28;92619;-47
2024/01/06 00:54:29;;;;;;;;;;;6.70;88.90;;;;;;4997679;28;92060;-48
2024/01/06 00:56:54;;;;;;;;;;;6.70;88.90;;;;;;4995380;28;92059;-49
2024/01/06 00:59:20;;;;;;;;;;;6.70;88.90;;;;;;4993259;28;91780;-48
2024/01/06 01:01:45;;;;;;;;;;;6.70;89.00;;;;;;5002982;28;92030;-49
2024/01/06 01:04:11;;;;;;;;;;;6.70;88.90;;;;;;4991466;28;92800;-47
2024/01/06 01:06:37;;;;;;;;;;;6.70;88.90;;;;;;4996197;28;93083;-47
2024/01/06 01:09:02;;;;;;;;;;;6.70;88.90;;;;;;4991640;28;93975;-48
2024/01/06 01:11:28;;;;;;;;;;;6.70;88.80;;;;;;4996894;28;92533;-46
2024/01/06 01:13:53;;;;;;;;;;;6.70;88.80;;;;;;4992101;28;92041;-48
2024/01/06 01:16:19;;;;;;;;;;;6.80;88.80;;;;;;4996632;28;92850;-49
2024/01/06 01:18:45;;;;;;;;;;;6.70;88.70;;;;;;4999984;28;92552;-48
2024/01/06 01:21:10;;;;;;;;;;;6.70;88.70;;;;;;4993331;28;92135;-49
2024/01/06 01:23:36;;;;;;;;;;;6.70;88.70;;;;;;4994359;28;92276;-48
2024/01/06 01:26:02;;;;;;;;;;;6.70;88.70;;;;;;4992216;28;92016;-47
2024/01/06 01:28:27;;;;;;;;;;;6.80;88.70;;;;;;4993189;28;91975;-48
2024/01/06 01:30:53;;;;;;;;;;;6.70;88.60;;;;;;4993882;28;93412;-48
2024/01/06 01:33:19;;;;;;;;;;;6.80;88.80;;;;;;4993055;28;92443;-50
2024/01/06 01:35:45;;;;;;;;;;;6.70;88.60;;;;;;4997588;28;92794;-47
2024/01/06 01:38:10;;;;;;;;;;;6.70;88.70;;;;;;4997576;28;92630;-48
2024/01/06 01:40:36;;;;;;;;;;;6.70;88.70;;;;;;4993411;28;92640;-49
2024/01/06 01:43:02;;;;;;;;;;;6.70;88.70;;;;;;4992583;28;92871;-48
2024/01/06 01:45:27;;;;;;;;;;;6.80;88.90;;;;;;4997000;28;93597;-48
2024/01/06 01:47:53;;;;;;;;;;;6.70;88.60;;;;;;4992693;28;91894;-47
2024/01/06 01:50:20;;;;;;;;;;;6.80;88.80;;;;;;4999367;28;95287;-48
2024/01/06 01:52:45;;;;;;;;;;;6.70;88.70;;;;;;4994516;28;92020;-48
2024/01/06 01:55:11;;;;;;;;;;;6.70;88.60;;;;;;4994542;28;94814;-48
2024/01/06 01:57:37;;;;;;;;;;;6.80;88.70;;;;;;4991838;28;93484;-47
2024/01/06 02:00:03;;;;;;;;;;;6.70;88.70;;;;;;4994398;28;91976;-49
2024/01/06 02:02:29;;;;;;;;;;;6.80;88.80;;;;;;4992810;28;92000;-47
2024/01/06 02:04:55;;;;;;;;;;;6.80;88.70;;;;;;4994496;28;93622;-49
2024/01/06 02:07:21;;;;;;;;;;;6.70;88.80;;;;;;5003020;28;91988;-48
2024/01/06 02:09:46;;;;;;;;;;;6.80;88.90;;;;;;4991204;28;92554;-47
2024/01/06 02:12:12;;;;;;;;;;;6.80;88.80;;;;;;4991973;28;91344;-48
2024/01/06 02:14:37;;;;;;;;;;;6.80;88.80;;;;;;4993532;28;92726;-48
2024/01/06 02:17:03;;;;;;;;;;;6.80;88.80;;;;;;4991581;28;93054;-49
2024/01/06 02:19:29;;;;;;;;;;;6.80;88.80;;;;;;4994164;28;92947;-47
2024/01/06 02:21:54;;;;;;;;;;;6.80;88.80;;;;;;4996263;28;92686;-48
2024/01/06 02:24:20;;;;;;;;;;;6.80;88.80;;;;;;4990228;28;93676;-49
2024/01/06 02:26:45;;;;;;;;;;;6.80;88.80;;;;;;4993596;28;92035;-48
2024/01/06 02:29:11;;;;;;;;;;;6.80;88.80;;;;;;4997587;28;91908;-49
2024/01/06 02:31:37;;;;;;;;;;;6.80;88.70;;;;;;4994848;28;92113;-49
2024/01/06 02:34:02;;;;;;;;;;;6.80;88.80;;;;;;4991907;28;92854;-47
2024/01/06 02:36:28;;;;;;;;;;;6.80;88.90;;;;;;4995119;28;91745;-48
2024/01/06 02:38:53;;;;;;;;;;;6.80;89.00;;;;;;4994206;28;92181;-49
2024/01/06 02:41:19;;;;;;;;;;;6.80;88.80;;;;;;4994786;28;92864;-47
2024/01/06 02:43:44;;;;;;;;;;;6.80;88.80;;;;;;4996487;28;93831;-48
2024/01/06 02:46:10;;;;;;;;;;;6.80;88.90;;;;;;4995078;28;91959;-47
2024/01/06 02:48:35;;;;;;;;;;;6.80;88.90;;;;;;4998529;28;91896;-47
2024/01/06 02:51:01;;;;;;;;;;;6.80;88.90;;;;;;4997365;28;92333;-50
2024/01/06 02:53:26;;;;;;;;;;;6.80;88.90;;;;;;4999647;28;91960;-49
2024/01/06 02:55:52;;;;;;;;;;;6.80;88.80;;;;;;4996971;28;93423;-49
2024/01/06 02:58:17;;;;;;;;;;;6.80;88.70;;;;;;5000878;28;92125;-47
2024/01/06 03:00:43;;;;;;;;;;;6.80;88.80;;;;;;4994648;28;93206;-47
2024/01/06 03:03:09;;;;;;;;;;;6.80;88.80;;;;;;4994182;28;92547;-47
2024/01/06 03:05:35;;;;;;;;;;;6.80;88.80;;;;;;4998097;28;92118;-48
2024/01/06 03:08:00;;;;;;;;;;;6.80;88.80;;;;;;4997136;28;92883;-47
2024/01/06 03:10:26;;;;;;;;;;;6.80;88.90;;;;;;4998982;28;93772;-47
2024/01/06 03:12:51;;;;;;;;;;;6.80;88.80;;;;;;4994269;28;91849;-48
2024/01/06 03:15:17;;;;;;;;;;;6.80;88.60;;;;;;4997517;28;92255;-48
2024/01/06 03:17:43;;;;;;;;;;;6.80;88.70;;;;;;4997627;28;92317;-48
2024/01/06 03:20:09;;;;;;;;;;;6.80;88.60;;;;;;4994222;28;91937;-47
2024/01/06 03:22:34;;;;;;;;;;;6.80;89.20;;;;;;4997065;28;92757;-50
2024/01/06 03:25:00;;;;;;;;;;;6.80;88.60;;;;;;4998553;28;91409;-48
2024/01/06 03:27:25;;;;;;;;;;;6.80;88.60;;;;;;4997232;28;91980;-50
2024/01/06 03:29:51;;;;;;;;;;;6.80;88.70;;;;;;4993973;28;92384;-48
2024/01/06 03:32:16;;;;;;;;;;;6.80;88.60;;;;;;4998674;28;93080;-47
2024/01/06 03:34:42;;;;;;;;;;;6.80;88.60;;;;;;4995649;28;92578;-47
2024/01/06 03:37:08;;;;;;;;;;;6.80;88.50;;;;;;4996952;28;92032;-49
2024/01/06 03:39:33;;;;;;;;;;;6.80;88.50;;;;;;4997146;28;91924;-48
2024/01/06 03:41:59;;;;;;;;;;;6.80;88.60;;;;;;4993091;28;92734;-47
2024/01/06 03:44:30;;;;;;;;;;;6.80;88.50;;;;;;4994404;28;92034;-49
2024/01/06 03:46:56;;;;;;;;;;;6.80;88.50;;;;;;4997941;28;91947;-48
2024/01/06 03:49:22;;;;;;;;;;;6.80;88.40;;;;;;4994307;28;92963;-47
2024/01/06 03:51:48;;;;;;;;;;;6.80;88.50;;;;;;4989280;28;92126;-48
2024/01/06 03:54:13;;;;;;;;;;;6.80;88.50;;;;;;5001115;28;92018;-47
2024/01/06 03:56:39;;;;;;;;;;;6.80;88.40;;;;;;5000279;28;93057;-50
2024/01/06 03:59:04;;;;;;;;;;;6.80;88.40;;;;;;4993491;28;92748;-49
2024/01/06 04:01:34;;;;;;;;;;;6.80;88.40;;;;;;4998414;28;92742;-48
2024/01/06 04:04:00;;;;;;;;;;;6.80;88.40;;;;;;4997666;28;91972;-47
2024/01/06 04:06:26;;;;;;;;;;;6.80;88.50;;;;;;4996731;28;92992;-50
2024/01/06 04:08:53;;;;;;;;;;;6.80;88.50;;;;;;4995037;28;93513;-47
2024/01/06 04:11:18;;;;;;;;;;;6.80;88.50;;;;;;4996914;28;91979;-48
2024/01/06 04:13:44;;;;;;;;;;;6.80;88.40;;;;;;4994396;28;91741;-50
2024/01/06 04:16:09;;;;;;;;;;;6.80;88.40;;;;;;4995697;28;92475;-47
2024/01/06 04:18:35;;;;;;;;;;;6.90;88.50;;;;;;4996571;28;92123;-47
2024/01/06 04:21:00;;;;;;;;;;;6.80;88.40;;;;;;4991872;28;94762;-49
2024/01/06 04:23:26;;;;;;;;;;;6.90;88.50;;;;;;4996853;28;92715;-49
2024/01/06 04:25:51;;;;;;;;;;;6.90;88.50;;;;;;4993339;28;92166;-48
2024/01/06 04:28:17;;;;;;;;;;;6.90;88.40;;;;;;4995468;28;94290;-48
2024/01/06 04:30:43;;;;;;;;;;;6.80;88.30;;;;;;4996360;28;91794;-48
2024/01/06 04:33:08;;;;;;;;;;;6.90;88.30;;;;;;4996406;28;92036;-47
2024/01/06 04:35:34;;;;;;;;;;;6.90;88.30;;;;;;4992553;28;92642;-47
2024/01/06 04:37:59;;;;;;;;;;;6.90;88.40;;;;;;4996416;28;91176;-49
2024/01/06 04:40:25;;;;;;;;;;;6.80;88.30;;;;;;4996211;28;93358;-47
2024/01/06 04:42:50;;;;;;;;;;;6.90;88.40;;;;;;4992288;28;92130;-49
2024/01/06 04:45:19;;;;;;;;;;;6.80;88.30;;;;;;4991917;28;93216;-51
2024/01/06 04:47:45;;;;;;;;;;;6.90;88.30;;;;;;4992901;28;93671;-48
2024/01/06 04:50:10;;;;;;;;;;;6.90;88.50;;;;;;4992788;28;91966;-49
2024/01/06 04:52:36;;;;;;;;;;;6.80;88.30;;;;;;4994948;28;92054;-49
2024/01/06 04:55:02;;;;;;;;;;;6.90;88.30;;;;;;4993373;28;92464;-48
2024/01/06 04:57:27;;;;;;;;;;;6.90;88.30;;;;;;4991848;28;92389;-48
2024/01/06 04:59:53;;;;;;;;;;;6.90;88.30;;;;;;4999032;28;92164;-47
2024/01/06 05:02:18;;;;;;;;;;;6.90;88.40;;;;;;4993138;28;91414;-47
2024/01/06 05:04:44;;;;;;;;;;;6.90;88.30;;;;;;4995964;28;91928;-48
2024/01/06 05:07:09;;;;;;;;;;;6.90;88.30;;;;;;4992094;28;92336;-49
2024/01/06 05:09:35;;;;;;;;;;;6.90;88.30;;;;;;4995734;28;92967;-49
2024/01/06 05:12:01;;;;;;;;;;;6.90;88.40;;;;;;4995546;28;93877;-48
2024/01/06 05:14:26;;;;;;;;;;;6.90;88.40;;;;;;4995912;28;92047;-48
2024/01/06 05:16:52;;;;;;;;;;;6.90;88.40;;;;;;4996184;28;92024;-50
2024/01/06 05:19:20;;;;;;;;;;;6.90;88.40;;;;;;4994636;28;92936;-51
2024/01/06 05:21:46;;;;;;;;;;;6.90;88.40;;;;;;4995876;28;92090;-49
2024/01/06 05:24:12;;;;;;;;;;;6.90;88.40;;;;;;4992297;28;92267;-51
2024/01/06 05:26:37;;;;;;;;;;;6.90;88.30;;;;;;4996081;28;91748;-49
2024/01/06 05:29:03;;;;;;;;;;;6.90;88.40;;;;;;4995044;28;92149;-51
2024/01/06 05:31:29;;;;;;;;;;;6.90;88.30;;;;;;4995735;28;93123;-50
2024/01/06 05:33:54;;;;;;;;;;;6.90;88.40;;;;;;4990764;28;94349;-49
2024/01/06 05:36:20;;;;;;;;;;;6.90;88.40;;;;;;4991748;28;92076;-48
2024/01/06 05:38:45;;;;;;;;;;;6.90;88.40;;;;;;4995478;28;92990;-49
2024/01/06 05:41:11;;;;;;;;;;;6.90;88.40;;;;;;4994891;28;92550;-49
2024/01/06 05:43:37;;;;;;;;;;;6.90;88.50;;;;;;4998687;28;94780;-49
2024/01/06 05:46:02;;;;;;;;;;;6.90;88.40;;;;;;4996426;28;92561;-52
2024/01/06 05:48:28;;;;;;;;;;;6.90;88.40;;;;;;4992011;28;92128;-47
2024/01/06 05:50:53;;;;;;;;;;;6.90;88.40;;;;;;5000022;28;91927;-49
2024/01/06 05:53:19;;;;;;;;;;;6.90;88.50;;;;;;4994741;28;92487;-50
2024/01/06 05:55:45;;;;;;;;;;;6.90;88.50;;;;;;4996036;28;92880;-52
2024/01/06 05:58:10;;;;;;;;;;;6.90;88.50;;;;;;4990069;28;93091;-49
2024/01/06 06:00:36;;;;;;;;;;;6.90;88.50;;;;;;4989187;28;93741;-50
2024/01/06 06:03:01;;;;;;;;;;;6.90;88.40;;;;;;4998232;28;92128;-48
2024/01/06 06:05:27;;;;;;;;;;;6.90;88.40;;;;;;4991251;28;92233;-48
2024/01/06 06:07:53;;;;;;;;;;;6.90;88.50;;;;;;4995352;28;92768;-49
2024/01/06 06:10:18;;;;;;;;;;;6.90;88.50;;;;;;4996786;28;92793;-50
2024/01/06 06:12:44;;;;;;;;;;;6.90;88.50;;;;;;4991666;28;93614;-49
2024/01/06 06:15:10;;;;;;;;;;;6.90;88.50;;;;;;4996945;28;92055;-49
2024/01/06 06:17:36;;;;;;;;;;;6.90;88.50;;;;;;4993334;28;92126;-48
2024/01/06 06:20:01;;;;;;;;;;;6.90;88.50;;;;;;4990199;28;93519;-48
2024/01/06 06:22:30;;;;;;;;;;;6.90;88.50;;;;;;4993896;28;92992;-48
2024/01/06 06:24:59;;;;;;;;;;;6.90;88.50;;;;;;4995814;28;92691;-49
2024/01/06 06:27:25;;;;;;;;;;;6.90;88.50;;;;;;4993297;28;92184;-47
2024/01/06 06:29:50;;;;;;;;;;;6.90;88.50;;;;;;4994657;28;92008;-48
2024/01/06 06:32:16;;;;;;;;;;;6.90;88.50;;;;;;4990686;28;92681;-47
2024/01/06 06:34:42;;;;;;;;;;;6.90;88.50;;;;;;4996335;28;92461;-47
2024/01/06 06:37:07;;;;;;;;;;;6.90;88.50;;;;;;4996943;28;92261;-49
2024/01/06 06:39:34;;;;;;;;;;;6.90;88.50;;;;;;4991408;28;91832;-49
2024/01/06 06:41:59;;;;;;;;;;;6.90;88.60;;;;;;4998353;28;92697;-47
2024/01/06 06:44:25;;;;;;;;;;;6.90;88.60;;;;;;4992197;28;92592;-49
2024/01/06 06:46:50;;;;;;;;;;;6.90;88.60;;;;;;5000342;28;93477;-49
2024/01/06 06:49:16;;;;;;;;;;;6.90;88.60;;;;;;4993563;28;92765;-48
2024/01/06 06:51:46;;;;;;;;;;;6.90;88.60;;;;;;4992068;28;93367;-47
2024/01/06 06:54:12;;;;;;;;;;;6.90;88.60;;;;;;4991796;28;92061;-48
2024/01/06 06:56:38;;;;;;;;;;;7.00;88.60;;;;;;4990603;28;91970;-49
2024/01/06 06:59:03;;;;;;;;;;;7.00;88.70;;;;;;4994246;28;92493;-48
2024/01/06 07:01:30;;;;;;;;;;;7.00;88.60;;;;;;4991837;28;92111;-49
2024/01/06 07:03:56;;;;;;;;;;;6.90;88.60;;;;;;4994693;28;91718;-47
2024/01/06 07:06:21;;;;;;;;;;;7.00;88.60;;;;;;4995626;28;93359;-51
2024/01/06 07:08:47;;;;;;;;;;;7.00;88.70;;;;;;4995028;28;91951;-50
2024/01/06 07:11:14;;;;;;;;;;;7.00;88.60;;;;;;4990458;28;93524;-49
2024/01/06 07:13:40;;;;;;;;;;;7.00;88.70;;;;;;4997819;28;92097;-49
2024/01/06 07:16:06;;;;;;;;;;;7.00;88.70;;;;;;4998175;28;92126;-48
2024/01/06 07:18:32;;;;;;;;;;;7.00;88.70;;;;;;4994979;28;93695;-47
2024/01/06 07:20:58;;;;;;;;;;;7.00;88.70;;;;;;4993570;28;92186;-48
2024/01/06 07:23:23;;;;;;;;;;;7.00;88.70;;;;;;4989474;28;92508;-48
2024/01/06 07:25:49;;;;;;;;;;;7.00;88.70;;;;;;4994511;28;93535;-49
2024/01/06 07:28:15;;;;;;;;;;;7.00;88.80;;;;;;4998541;28;91399;-49
2024/01/06 07:30:40;;;;;;;;;;;7.00;88.80;;;;;;4993702;28;93495;-48
2024/01/06 07:33:06;;;;;;;;;;;7.00;88.80;;;;;;4997175;28;92688;-48
2024/01/06 07:35:31;;;;;;;;;;;7.00;88.90;;;;;;4999153;28;93304;-49
2024/01/06 07:37:57;;;;;;;;;;;7.00;88.90;;;;;;4993655;28;92348;-48
2024/01/06 07:40:23;;;;;;;;;;;7.00;88.90;;;;;;4996794;28;92084;-48
2024/01/06 07:42:49;;;;;;;;;;;7.10;88.90;;;;;;4993718;28;92995;-50
2024/01/06 07:45:14;;;;;;;;;;;7.00;88.90;;;;;;4999000;28;93535;-49
2024/01/06 07:47:40;;;;;;;;;;;7.10;89.10;;;;;;4995094;28;92088;-49
2024/01/06 07:50:05;;;;;;;;;;;7.10;89.00;;;;;;4997195;28;92910;-49
2024/01/06 07:52:32;;;;;;;;;;;7.10;89.20;;;;;;4991232;28;91310;-48
2024/01/06 07:54:58;;;;;;;;;;;7.10;89.20;;;;;;4997521;28;93315;-48
2024/01/06 07:57:24;;;;;;;;;;;7.10;89.40;;;;;;4997156;28;93594;-50
2024/01/06 07:59:50;;;;;;;;;;;7.10;89.50;;;;;;4987628;28;92980;-47
2024/01/06 08:02:17;;;;;;;;;;;7.10;89.60;;;;;;4993526;28;93828;-49
2024/01/06 08:04:42;;;;;;;;;;;7.10;89.90;;;;;;4997279;28;93017;-49
2024/01/06 08:07:08;;;;;;;;;;;7.10;89.80;;;;;;4991669;28;92172;-50
2024/01/06 08:09:33;;;;;;;;;;;7.10;89.80;;;;;;4993420;28;92687;-51
2024/01/06 08:11:59;;;;;;;;;;;7.10;89.80;;;;;;4994289;28;93486;-47
2024/01/06 08:14:24;;;;;;;;;;;7.10;89.70;;;;;;4996111;28;92065;-48
2024/01/06 08:16:50;;;;;;;;;;;7.10;89.80;;;;;;4996959;28;91777;-47
2024/01/06 08:19:16;;;;;;;;;;;7.10;89.90;;;;;;4998574;28;92894;-48
2024/01/06 08:21:41;;;;;;;;;;;7.10;90.00;;;;;;4997140;28;91983;-48
2024/01/06 08:24:07;;;;;;;;;;;7.10;90.00;;;;;;4992315;28;93573;-49
2024/01/06 08:26:32;;;;;;;;;;;7.10;90.00;;;;;;4995538;28;92219;-48
2024/01/06 08:28:58;;;;;;;;;;;7.10;89.90;;;;;;4997864;28;91787;-51
2024/01/06 08:31:23;;;;;;;;;;;7.20;90.00;;;;;;4997989;28;92368;-52
2024/01/06 08:33:49;;;;;;;;;;;7.20;90.10;;;;;;4998999;28;92768;-49
2024/01/06 08:36:15;;;;;;;;;;;7.20;90.10;;;;;;4995418;28;92452;-49
2024/01/06 08:38:40;;;;;;;;;;;7.20;90.00;;;;;;4992403;28;92101;-48
2024/01/06 08:41:06;;;;;;;;;;;7.20;90.00;;;;;;4994429;28;91862;-48
2024/01/06 08:43:31;;;;;;;;;;;7.20;90.00;;;;;;4993663;28;93541;-48
2024/01/06 08:45:57;;;;;;;;;;;7.20;90.00;;;;;;4998195;28;92104;-48
2024/01/06 08:48:22;;;;;;;;;;;7.20;90.00;;;;;;4992949;28;92867;-48
2024/01/06 08:50:48;;;;;;;;;;;7.20;90.10;;;;;;4998480;28;92489;-49
2024/01/06 08:53:14;;;;;;;;;;;7.20;90.00;;;;;;4991213;28;92202;-49
2024/01/06 08:55:40;;;;;;;;;;;7.20;90.10;;;;;;4993720;28;92970;-50
2024/01/06 08:58:05;;;;;;;;;;;7.20;90.10;;;;;;4992797;28;91976;-47
2024/01/06 09:00:31;;;;;;;;;;;7.30;90.10;;;;;;4997166;28;92066;-49
2024/01/06 09:02:56;;;;;;;;;;;7.20;90.10;;;;;;4991065;28;93010;-50
2024/01/06 09:05:22;;;;;;;;;;;7.20;90.10;;;;;;4997983;28;91296;-49
2024/01/06 09:07:50;;;;;;;;;;;7.20;90.10;;;;;;4995459;28;91985;-50
2024/01/06 09:10:19;;;;;;;;;;;7.30;90.50;;;;;;4994911;28;93593;-50
2024/01/06 09:12:44;;;;;;;;;;;7.30;90.20;;;;;;4990589;28;92898;-47
2024/01/06 09:15:10;;;;;;;;;;;7.30;90.30;;;;;;4997805;28;93723;-49
2024/01/06 09:17:35;;;;;;;;;;;7.30;90.20;;;;;;4996508;28;91939;-48
2024/01/06 09:20:01;;;;;;;;;;;7.30;90.20;;;;;;4996194;28;92861;-48
2024/01/06 09:22:27;;;;;;;;;;;7.30;90.20;;;;;;4990277;28;93923;-48
2024/01/06 09:24:53;;;;;;;;;;;7.20;90.30;;;;;;4994948;28;92023;-47
2024/01/06 09:27:19;;;;;;;;;;;7.30;90.20;;;;;;4992638;28;92897;-49
2024/01/06 09:29:45;;;;;;;;;;;7.30;90.40;;;;;;4995637;28;92843;-50
2024/01/06 09:32:10;;;;;;;;;;;7.30;90.30;;;;;;4996237;28;92035;-49
2024/01/06 09:34:37;;;;;;;;;;;7.30;90.30;;;;;;4992190;28;91862;-47
2024/01/06 09:37:02;;;;;;;;;;;7.30;90.30;;;;;;4998018;28;94399;-49
2024/01/06 09:39:28;;;;;;;;;;;7.30;90.40;;;;;;4992790;28;92538;-47
2024/01/06 09:41:53;;;;;;;;;;;7.30;90.40;;;;;;4989585;28;92468;-53
2024/01/06 09:44:19;;;;;;;;;;;7.30;90.40;;;;;;4997253;28;92782;-48
2024/01/06 09:46:44;;;;;;;;;;;7.30;90.40;;;;;;4999192;28;92307;-49
2024/01/06 09:49:10;;;;;;;;;;;7.30;90.40;;;;;;4990454;28;93384;-48
2024/01/06 09:51:39;;;;;;;;;;;7.30;90.50;;;;;;4990185;28;92356;-48
2024/01/06 09:54:07;;;;;;;;;;;7.30;90.40;;;;;;4995674;28;93010;-48
2024/01/06 09:56:33;;;;;;;;;;;7.30;90.50;;;;;;4994969;28;92582;-48
2024/01/06 09:58:59;;;;;;;;;;;7.40;90.50;;;;;;4998837;28;91961;-50
2024/01/06 10:01:24;;;;;;;;;;;7.30;90.50;;;;;;4994789;28;94436;-48
2024/01/06 10:03:50;;;;;;;;;;;7.30;90.50;;;;;;4993554;28;92079;-47
2024/01/06 10:06:16;;;;;;;;;;;7.40;90.50;;;;;;4994842;28;92910;-50
2024/01/06 10:08:43;;;;;;;;;;;7.40;90.50;;;;;;4993515;28;93389;-48
2024/01/06 10:11:09;;;;;;;;;;;7.40;90.60;;;;;;4994559;28;92084;-50
2024/01/06 10:13:35;;;;;;;;;;;7.40;90.50;;;;;;4997770;28;93476;-51
2024/01/06 10:16:01;;;;;;;;;;;7.40;90.60;;;;;;4992068;28;93037;-50
2024/01/06 10:18:28;;;;;;;;;;;7.40;90.80;;;;;;4996264;28;91908;-48
2024/01/06 10:20:54;;;;;;;;;;;7.40;90.60;;;;;;4993637;28;91990;-49
2024/01/06 10:23:21;;;;;;;;;;;7.40;90.70;;;;;;4996601;28;92039;-49
2024/01/06 10:25:47;;;;;;;;;;;7.40;90.70;;;;;;4988241;28;93767;-48
2024/01/06 10:28:13;;;;;;;;;;;7.40;90.70;;;;;;4992465;28;92581;-49
2024/01/06 10:30:39;;;;;;;;;;;7.40;90.60;;;;;;4991194;28;91995;-49
2024/01/06 10:33:10;;;;;;;;;;;7.40;90.70;;;;;;4995607;28;92620;-51
2024/01/06 10:35:36;;;;;;;;;;;7.40;90.70;;;;;;4988475;28;93617;-48
2024/01/06 10:38:02;;;;;;;;;;;7.40;90.80;;;;;;4995954;28;92768;-48
2024/01/06 10:40:28;;;;;;;;;;;7.50;90.80;;;;;;4993943;28;92009;-49
2024/01/06 10:42:53;;;;;;;;;;;7.50;90.70;;;;;;4997783;28;91743;-48
2024/01/06 10:45:19;;;;;;;;;;;7.40;90.70;;;;;;4990803;28;92184;-49
2024/01/06 10:47:44;;;;;;;;;;;7.50;90.80;;;;;;4996592;28;93637;-50
2024/01/06 10:50:10;;;;;;;;;;;7.50;90.80;;;;;;4991097;28;93069;-51
2024/01/06 10:52:37;;;;;;;;;;;7.40;90.70;;;;;;4994371;28;92893;-48
2024/01/06 10:55:04;;;;;;;;;;;7.40;90.80;;;;;;4991074;28;93615;-51
2024/01/06 10:57:31;;;;;;;;;;;7.50;90.80;;;;;;4995223;28;92648;-49
2024/01/06 10:59:58;;;;;;;;;;;7.40;90.80;;;;;;4992968;28;92814;-48
2024/01/06 11:02:25;;;;;;;;;;;7.50;90.90;;;;;;4995271;28;92390;-52
2024/01/06 11:04:51;;;;;;;;;;;7.50;90.90;;;;;;5001393;28;91971;-49
2024/01/06 11:07:20;;;;;;;;;;;7.50;91.00;;;;;;4994724;28;91695;-50
2024/01/06 11:10:06;;;;;;;;;;;7.50;90.80;;;;;;4996300;28;92564;-47
2024/01/06 11:12:32;;;;;;;;;;;7.50;90.90;;;;;;5001285;28;92081;-49
2024/01/06 11:14:57;;;;;;;;;;;7.60;90.90;;;;;;4995402;28;94664;-50
2024/01/06 11:17:58;;;;;;;;;;;7.50;90.90;;;;;;5000474;28;92099;-49
2024/01/06 11:20:24;;;;;;;;;;;7.50;90.90;;;;;;4992701;28;93046;-50
2024/01/06 11:22:50;;;;;;;;;;;7.60;91.00;;;;;;4995149;28;92470;-50
2024/01/06 11:25:17;;;;;;;;;;;7.60;90.90;;;;;;5001203;28;92231;-49
2024/01/06 11:27:45;;;;;;;;;;;7.60;90.80;;;;;;4996946;28;93321;-50
2024/01/06 11:30:19;;;;;;;;;;;7.60;90.80;;;;;;4995797;28;91986;-51
2024/01/06 11:32:46;;;;;;;;;;;7.70;90.90;;;;;;4993547;28;91807;-52
2024/01/06 11:35:15;;;;;;;;;;;7.60;90.90;;;;;;4996478;28;93644;-50
2024/01/06 11:37:41;;;;;;;;;;;7.60;90.90;;;;;;4994153;28;92052;-52
2024/01/06 11:40:25;;;;;;;;;;;7.60;90.90;;;;;;4998624;28;92957;-51
2024/01/06 11:42:57;;;;;;;;;;;7.60;91.10;;;;;;4993576;28;92551;-51
2024/01/06 11:45:24;;;;;;;;;;;7.60;90.90;;;;;;5000192;28;93519;-49
2024/01/06 11:47:51;;;;;;;;;;;7.70;90.90;;;;;;4999105;28;92082;-49
2024/01/06 11:50:17;;;;;;;;;;;7.70;91.00;;;;;;4993388;28;92484;-50
2024/01/06 11:52:43;;;;;;;;;;;7.70;91.00;;;;;;4994415;28;92010;-52
2024/01/06 11:55:09;;;;;;;;;;;7.70;91.00;;;;;;4996500;28;93056;-50
2024/01/06 11:57:35;;;;;;;;;;;7.70;91.00;;;;;;4997208;28;91373;-52
2024/01/06 12:00:00;;;;;;;;;;;7.70;91.00;;;;;;4990853;28;91974;-52
2024/01/06 12:02:26;;;;;;;;;;;7.70;91.00;;;;;;4997720;28;93469;-53
2024/01/06 12:04:52;;;;;;;;;;;7.70;91.00;;;;;;4993548;28;93357;-50
2024/01/06 12:07:24;;;;;;;;;;;7.70;91.10;;;;;;4996431;28;93716;-49
2024/01/06 12:10:08;;;;;;;;;;;7.70;91.10;;;;;;4993373;28;92766;-48
2024/01/06 12:12:33;;;;;;;;;;;7.70;91.10;;;;;;4992483;28;92526;-50
2024/01/06 12:14:59;;;;;;;;;;;7.70;91.10;;;;;;4993787;28;93717;-49
2024/01/06 12:17:28;;;;;;;;;;;7.70;91.10;;;;;;4998945;28;92174;-48
2024/01/06 12:19:53;;;;;;;;;;;7.70;91.10;;;;;;4994725;28;92737;-50
2024/01/06 12:22:19;;;;;;;;;;;7.70;91.10;;;;;;5000376;28;92819;-48
2024/01/06 12:25:05;;;;;;;;;;;7.70;91.20;;;;;;5000791;28;92159;-49
2024/01/06 12:27:31;;;;;;;;;;;7.70;91.10;;;;;;4991853;28;93638;-48
2024/01/06 12:29:56;;;;;;;;;;;7.80;91.20;;;;;;4992880;28;93517;-48
2024/01/06 12:32:23;;;;;;;;;;;7.80;91.10;;;;;;4993292;28;92094;-48
2024/01/06 12:34:48;;;;;;;;;;;7.80;91.20;;;;;;4996215;28;92414;-48
2024/01/06 12:37:14;;;;;;;;;;;7.80;91.10;;;;;;4995106;28;92379;-49
2024/01/06 12:39:41;;;;;;;;;;;7.80;91.10;;;;;;4994499;28;92151;-48
2024/01/06 12:42:07;;;;;;;;;;;7.80;91.20;;;;;;4993468;28;93670;-48
2024/01/06 12:44:35;;;;;;;;;;;7.80;91.20;;;;;;5000139;28;92711;-48
2024/01/06 12:47:00;;;;;;;;;;;7.80;91.10;;;;;;4994533;28;93014;-48
2024/01/06 12:49:26;;;;;;;;;;;7.90;91.10;;;;;;4997631;28;92573;-48
2024/01/06 12:51:51;;;;;;;;;;;7.90;91.10;;;;;;4995089;28;92005;-48
2024/01/06 12:54:17;;;;;;;;;;;7.90;91.10;;;;;;4997990;28;93436;-49
2024/01/06 12:56:43;;;;;;;;;;;7.90;91.20;;;;;;4995046;28;92067;-47
2024/01/06 12:59:08;;;;;;;;;;;7.90;91.10;;;;;;4991003;28;91930;-50
2024/01/06 13:01:34;;;;;;;;;;;7.90;91.10;;;;;;4996398;28;92548;-49
2024/01/06 13:04:01;;;;;;;;;;;7.90;91.10;;;;;;4995877;28;92089;-48
2024/01/06 13:06:26;;;;;;;;;;;7.90;91.10;;;;;;4992917;28;91962;-48
2024/01/06 13:08:52;;;;;;;;;;;8.00;91.10;;;;;;4998026;28;93546;-58
2024/01/06 13:11:18;;;;;;;;;;;7.90;90.30;;;;;;4994883;28;92867;-58
2024/01/06 13:13:44;;;;;;;;;;;8.00;89.40;;;;;;4996453;28;91909;-52
2024/01/06 13:16:09;;;;;;;;;;;8.10;89.70;;;;;;4997400;28;92515;-49
2024/01/06 13:18:35;;;;;;;;;;;7.90;90.40;;;;;;4994778;28;92997;-53
2024/01/06 13:21:01;;;;;;;;;;;7.90;90.70;;;;;;4995648;28;93742;-49
2024/01/06 13:23:27;;;;;;;;;;;8.00;90.80;;;;;;4995675;28;92200;-51
2024/01/06 13:25:53;;;;;;;;;;;8.10;90.80;;;;;;4988906;28;92892;-51
2024/01/06 13:28:19;;;;;;;;;;;8.10;90.80;;;;;;4993928;28;93320;-50
2024/01/06 13:30:44;;;;;;;;;;;8.10;90.80;;;;;;4995654;28;92056;-49
2024/01/06 13:33:10;;;;;;;;;;;8.10;90.70;;;;;;4995135;28;92783;-49
2024/01/06 13:35:38;;;;;;;;;;;8.10;90.80;;;;;;4997794;28;91671;-51
2024/01/06 13:38:04;;;;;;;;;;;8.20;90.80;;;;;;4994463;28;92433;-51
2024/01/06 13:40:30;;;;;;;;;;;8.10;90.80;;;;;;4994993;28;93581;-51
2024/01/06 13:42:55;;;;;;;;;;;8.20;90.90;;;;;;5000087;28;92935;-49
2024/01/06 13:45:21;;;;;;;;;;;8.10;90.90;;;;;;4996679;28;92534;-48
2024/01/06 13:47:47;;;;;;;;;;;8.10;90.90;;;;;;4992922;28;93377;-48
2024/01/06 13:50:13;;;;;;;;;;;8.20;91.00;;;;;;4989587;28;93776;-52
2024/01/06 13:52:38;;;;;;;;;;;8.20;91.00;;;;;;4991700;28;92046;-50
2024/01/06 13:55:04;;;;;;;;;;;8.20;91.00;;;;;;4991271;28;92348;-51
2024/01/06 13:57:30;;;;;;;;;;;8.20;91.00;;;;;;4996468;28;92051;-52
2024/01/06 13:59:57;;;;;;;;;;;8.20;90.90;;;;;;4992648;28;91702;-49
2024/01/06 14:02:23;;;;;;;;;;;8.20;91.00;;;;;;4996949;28;92075;-51
2024/01/06 14:04:48;;;;;;;;;;;8.20;91.00;;;;;;4996962;28;91928;-49
2024/01/06 14:07:14;;;;;;;;;;;8.20;91.00;;;;;;4993924;28;95014;-50
2024/01/06 14:09:40;;;;;;;;;;;8.20;90.90;;;;;;4991388;28;92195;-49
2024/01/06 14:12:05;;;;;;;;;;;8.20;91.00;;;;;;4993460;28;91975;-48
2024/01/06 14:14:31;;;;;;;;;;;8.20;91.00;;;;;;4992594;28;92302;-50
2024/01/06 14:16:57;;;;;;;;;;;8.30;91.10;;;;;;4993642;28;92228;-49
2024/01/06 14:19:23;;;;;;;;;;;8.30;91.20;;;;;;4993663;28;92055;-49
2024/01/06 14:21:50;;;;;;;;;;;8.30;91.10;;;;;;4999439;28;92989;-48
2024/01/06 14:24:18;;;;;;;;;;;8.30;91.10;;;;;;4994266;28;93256;-51